sensor_id;sensor_type;location;lat;lon;timestamp;temperature;humidity
43414;DHT22;29013;49.676;8.606;2023-06-10T00:02:01;21.1;69.8
43414;DHT22;29013;49.676;8.606;2023-06-10T00:07:26;21.0;70.8
43414;DHT22;29013;49.676;8.606;2023-06-10T00:12:49;21.0;70.5
43414;DHT22;29013;49.676;8.606;2023-06-10T00:18:31;20.9;71.1
43414;DHT22;29013;49.676;8.606;2023-06-10T00:23:52;21.0;70.9
43414;DHT22;29013;49.676;8.606;2023-06-10T00:29:16;20.8;71.3
43414;DHT22;29013;49.676;8.606;2023-06-10T00:34:41;20.7;72.1
43414;DHT22;29013;49.676;8.606;2023-06-10T00:40:09;20.6;73.3
43414;DHT22;29013;49.676;8.606;2023-06-10T00:45:32;20.5;72.9
43414;DHT22;29013;49.676;8.606;2023-06-10T00:51:15;20.4;73.6
43414;DHT22;29013;49.676;8.606;2023-06-10T00:56:38;20.5;73.2
43414;DHT22;29013;49.676;8.606;2023-06-10T01:01:57;20.4;73.2
43414;DHT22;29013;49.676;8.606;2023-06-10T01:07:24;20.4;73.7
43414;DHT22;29013;49.676;8.606;2023-06-10T01:13:05;20.2;74.8
43414;DHT22;29013;49.676;8.606;2023-06-10T01:18:31;20.2;74.5
43414;DHT22;29013;49.676;8.606;2023-06-10T01:23:52;20.1;74.9
43414;DHT22;29013;49.676;8.606;2023-06-10T01:29:17;20.0;75.3
43414;DHT22;29013;49.676;8.606;2023-06-10T01:34:34;20.0;75.3
43414;DHT22;29013;49.676;8.606;2023-06-10T01:39:59;20.0;75.5
43414;DHT22;29013;49.676;8.606;2023-06-10T01:45:17;20.0;75.6
43414;DHT22;29013;49.676;8.606;2023-06-10T01:50:40;19.9;75.9
43414;DHT22;29013;49.676;8.606;2023-06-10T01:56:01;19.8;76.8
43414;DHT22;29013;49.676;8.606;2023-06-10T02:01:26;19.9;75.9
43414;DHT22;29013;49.676;8.606;2023-06-10T02:06:49;19.9;75.6
43414;DHT22;29013;49.676;8.606;2023-06-10T02:12:14;19.9;76.2
43414;DHT22;29013;49.676;8.606;2023-06-10T02:17:36;19.8;76.1
43414;DHT22;29013;49.676;8.606;2023-06-10T02:22:57;19.8;76.4
43414;DHT22;29013;49.676;8.606;2023-06-10T02:28:19;19.7;76.5
43414;DHT22;29013;49.676;8.606;2023-06-10T02:33:41;19.5;76.8
43414;DHT22;29013;49.676;8.606;2023-06-10T02:39:05;19.4;77.6
43414;DHT22;29013;49.676;8.606;2023-06-10T02:44:27;19.4;77.8
43414;DHT22;29013;49.676;8.606;2023-06-10T02:49:56;19.2;78.5
43414;DHT22;29013;49.676;8.606;2023-06-10T02:55:43;19.2;78.7
43414;DHT22;29013;49.676;8.606;2023-06-10T03:01:07;19.4;77.9
43414;DHT22;29013;49.676;8.606;2023-06-10T03:06:32;19.3;78.1
43414;DHT22;29013;49.676;8.606;2023-06-10T03:11:55;19.2;78.0
43414;DHT22;29013;49.676;8.606;2023-06-10T03:17:20;18.9;78.4
43414;DHT22;29013;49.676;8.606;2023-06-10T03:22:38;18.6;79.1
43414;DHT22;29013;49.676;8.606;2023-06-10T03:28:03;18.6;80.0
43414;DHT22;29013;49.676;8.606;2023-06-10T03:33:21;18.6;80.9
43414;DHT22;29013;49.676;8.606;2023-06-10T03:38:44;18.6;81.3
43414;DHT22;29013;49.676;8.606;2023-06-10T03:44:08;18.6;81.6
43414;DHT22;29013;49.676;8.606;2023-06-10T03:49:28;18.6;82.2
43414;DHT22;29013;49.676;8.606;2023-06-10T03:54:53;18.6;82.0
43414;DHT22;29013;49.676;8.606;2023-06-10T04:00:20;18.5;82.4
43414;DHT22;29013;49.676;8.606;2023-06-10T04:05:44;18.5;82.9
43414;DHT22;29013;49.676;8.606;2023-06-10T04:11:08;18.5;83.0
43414;DHT22;29013;49.676;8.606;2023-06-10T04:16:31;18.5;83.7
43414;DHT22;29013;49.676;8.606;2023-06-10T04:21:53;18.5;84.3
43414;DHT22;29013;49.676;8.606;2023-06-10T04:27:16;18.5;83.8
43414;DHT22;29013;49.676;8.606;2023-06-10T04:32:40;18.6;84.1
43414;DHT22;29013;49.676;8.606;2023-06-10T04:38:02;18.6;84.9
43414;DHT22;29013;49.676;8.606;2023-06-10T04:43:26;18.6;84.8
43414;DHT22;29013;49.676;8.606;2023-06-10T04:48:49;18.6;85.3
43414;DHT22;29013;49.676;8.606;2023-06-10T04:54:15;18.7;86.1
43414;DHT22;29013;49.676;8.606;2023-06-10T04:59:40;18.7;85.2
43414;DHT22;29013;49.676;8.606;2023-06-10T05:05:03;18.8;85.3
43414;DHT22;29013;49.676;8.606;2023-06-10T05:10:22;18.9;84.8
43414;DHT22;29013;49.676;8.606;2023-06-10T05:15:45;19.0;84.4
43414;DHT22;29013;49.676;8.606;2023-06-10T05:21:13;19.1;85.3
43414;DHT22;29013;49.676;8.606;2023-06-10T05:26:37;19.2;84.8
43414;DHT22;29013;49.676;8.606;2023-06-10T05:32:01;19.2;84.5
43414;DHT22;29013;49.676;8.606;2023-06-10T05:37:20;19.4;84.3
43414;DHT22;29013;49.676;8.606;2023-06-10T05:42:45;19.5;84.5
43414;DHT22;29013;49.676;8.606;2023-06-10T05:48:08;19.7;85.3
43414;DHT22;29013;49.676;8.606;2023-06-10T05:53:32;19.9;85.5
43414;DHT22;29013;49.676;8.606;2023-06-10T05:59:01;20.1;85.3
43414;DHT22;29013;49.676;8.606;2023-06-10T06:04:24;20.3;85.9
43414;DHT22;29013;49.676;8.606;2023-06-10T06:09:49;20.4;86.5
43414;DHT22;29013;49.676;8.606;2023-06-10T06:15:15;20.7;84.5
43414;DHT22;29013;49.676;8.606;2023-06-10T06:21:00;20.8;85.2
43414;DHT22;29013;49.676;8.606;2023-06-10T06:26:24;21.2;84.6
43414;DHT22;29013;49.676;8.606;2023-06-10T06:32:16;21.3;85.7
43414;DHT22;29013;49.676;8.606;2023-06-10T06:37:40;21.5;82.0
43414;DHT22;29013;49.676;8.606;2023-06-10T06:43:06;21.5;81.9
43414;DHT22;29013;49.676;8.606;2023-06-10T06:48:26;21.6;81.2
43414;DHT22;29013;49.676;8.606;2023-06-10T06:53:51;21.7;81.4
43414;DHT22;29013;49.676;8.606;2023-06-10T06:59:10;22.0;81.3
43414;DHT22;29013;49.676;8.606;2023-06-10T07:04:33;22.1;81.4
43414;DHT22;29013;49.676;8.606;2023-06-10T07:09:58;22.0;80.7
43414;DHT22;29013;49.676;8.606;2023-06-10T07:15:23;22.1;80.3
43414;DHT22;29013;49.676;8.606;2023-06-10T07:21:39;22.4;80.7
43414;DHT22;29013;49.676;8.606;2023-06-10T07:27:01;22.9;79.1
43414;DHT22;29013;49.676;8.606;2023-06-10T07:32:26;22.9;78.3
43414;DHT22;29013;49.676;8.606;2023-06-10T07:37:52;23.1;77.2
43414;DHT22;29013;49.676;8.606;2023-06-10T07:43:15;23.2;76.5
43414;DHT22;29013;49.676;8.606;2023-06-10T07:48:34;23.4;75.9
43414;DHT22;29013;49.676;8.606;2023-06-10T07:53:59;23.5;75.6
43414;DHT22;29013;49.676;8.606;2023-06-10T07:59:21;23.6;74.7
43414;DHT22;29013;49.676;8.606;2023-06-10T08:04:45;23.8;74.7
43414;DHT22;29013;49.676;8.606;2023-06-10T08:10:11;23.9;74.3
43414;DHT22;29013;49.676;8.606;2023-06-10T08:15:35;24.0;73.1
43414;DHT22;29013;49.676;8.606;2023-06-10T08:20:59;24.2;73.1
43414;DHT22;29013;49.676;8.606;2023-06-10T08:26:23;24.3;72.6
43414;DHT22;29013;49.676;8.606;2023-06-10T08:31:42;24.5;70.9
43414;DHT22;29013;49.676;8.606;2023-06-10T08:37:00;24.5;71.0
43414;DHT22;29013;49.676;8.606;2023-06-10T08:42:24;24.6;71.1
43414;DHT22;29013;49.676;8.606;2023-06-10T08:47:49;24.6;70.4
43414;DHT22;29013;49.676;8.606;2023-06-10T08:53:13;24.7;70.6
43414;DHT22;29013;49.676;8.606;2023-06-10T08:58:35;25.0;70.6
43414;DHT22;29013;49.676;8.606;2023-06-10T09:03:59;25.1;70.7
43414;DHT22;29013;49.676;8.606;2023-06-10T09:09:24;25.3;69.0
43414;DHT22;29013;49.676;8.606;2023-06-10T09:15:11;25.5;68.1
43414;DHT22;29013;49.676;8.606;2023-06-10T09:20:58;25.8;68.4
43414;DHT22;29013;49.676;8.606;2023-06-10T09:26:19;26.0;66.9
43414;DHT22;29013;49.676;8.606;2023-06-10T09:31:43;26.1;67.7
43414;DHT22;29013;49.676;8.606;2023-06-10T09:37:02;26.3;66.6
43414;DHT22;29013;49.676;8.606;2023-06-10T09:42:26;26.2;66.2
43414;DHT22;29013;49.676;8.606;2023-06-10T09:47:54;26.1;66.7
43414;DHT22;29013;49.676;8.606;2023-06-10T09:53:18;26.2;66.2
43414;DHT22;29013;49.676;8.606;2023-06-10T09:58:41;26.3;65.6
43414;DHT22;29013;49.676;8.606;2023-06-10T10:04:03;26.4;63.4
43414;DHT22;29013;49.676;8.606;2023-06-10T10:09:28;26.5;63.8
43414;DHT22;29013;49.676;8.606;2023-06-10T10:14:51;26.6;63.7
43414;DHT22;29013;49.676;8.606;2023-06-10T10:20:14;26.8;62.7
43414;DHT22;29013;49.676;8.606;2023-06-10T10:25:37;26.9;60.8
43414;DHT22;29013;49.676;8.606;2023-06-10T10:31:02;27.0;62.5
43414;DHT22;29013;49.676;8.606;2023-06-10T10:36:25;27.2;62.8
43414;DHT22;29013;49.676;8.606;2023-06-10T10:41:47;27.4;63.6
43414;DHT22;29013;49.676;8.606;2023-06-10T10:47:11;27.5;62.3
43414;DHT22;29013;49.676;8.606;2023-06-10T10:52:46;27.5;61.4
43414;DHT22;29013;49.676;8.606;2023-06-10T10:58:04;27.5;61.8
43414;DHT22;29013;49.676;8.606;2023-06-10T11:03:29;27.6;61.4
43414;DHT22;29013;49.676;8.606;2023-06-10T11:08:54;27.6;60.6
43414;DHT22;29013;49.676;8.606;2023-06-10T11:14:17;27.7;61.2
43414;DHT22;29013;49.676;8.606;2023-06-10T11:19:43;27.8;60.4
43414;DHT22;29013;49.676;8.606;2023-06-10T11:25:07;27.9;60.6
43414;DHT22;29013;49.676;8.606;2023-06-10T11:30:35;28.3;60.4
43414;DHT22;29013;49.676;8.606;2023-06-10T11:35:59;28.7;59.4
43414;DHT22;29013;49.676;8.606;2023-06-10T11:41:22;28.8;57.9
43414;DHT22;29013;49.676;8.606;2023-06-10T11:46:47;28.9;58.2
43414;DHT22;29013;49.676;8.606;2023-06-10T11:52:06;29.1;57.6
43414;DHT22;29013;49.676;8.606;2023-06-10T11:57:24;29.0;55.9
43414;DHT22;29013;49.676;8.606;2023-06-10T12:02:45;28.9;57.1
43414;DHT22;29013;49.676;8.606;2023-06-10T12:08:12;29.1;58.0
43414;DHT22;29013;49.676;8.606;2023-06-10T12:13:32;29.0;56.0
43414;DHT22;29013;49.676;8.606;2023-06-10T12:19:00;28.7;55.4
43414;DHT22;29013;49.676;8.606;2023-06-10T12:24:14;28.6;56.0
43414;DHT22;29013;49.676;8.606;2023-06-10T12:29:39;28.9;56.1
43414;DHT22;29013;49.676;8.606;2023-06-10T12:35:08;29.1;55.2
43414;DHT22;29013;49.676;8.606;2023-06-10T12:40:32;29.4;54.9
43414;DHT22;29013;49.676;8.606;2023-06-10T12:45:56;29.7;54.9
43414;DHT22;29013;49.676;8.606;2023-06-10T12:51:20;29.8;54.7
43414;DHT22;29013;49.676;8.606;2023-06-10T12:56:43;30.0;54.5
43414;DHT22;29013;49.676;8.606;2023-06-10T13:02:05;30.1;53.1
43414;DHT22;29013;49.676;8.606;2023-06-10T13:07:29;30.3;52.8
43414;DHT22;29013;49.676;8.606;2023-06-10T13:12:55;30.4;53.8
43414;DHT22;29013;49.676;8.606;2023-06-10T13:18:21;30.6;53.7
43414;DHT22;29013;49.676;8.606;2023-06-10T13:23:48;30.8;53.1
43414;DHT22;29013;49.676;8.606;2023-06-10T13:29:12;30.8;52.4
43414;DHT22;29013;49.676;8.606;2023-06-10T13:34:56;30.5;53.1
43414;DHT22;29013;49.676;8.606;2023-06-10T13:40:20;30.6;52.9
43414;DHT22;29013;49.676;8.606;2023-06-10T13:45:45;30.7;51.8
43414;DHT22;29013;49.676;8.606;2023-06-10T13:51:08;30.7;51.7
43414;DHT22;29013;49.676;8.606;2023-06-10T13:56:33;30.8;51.8
43414;DHT22;29013;49.676;8.606;2023-06-10T14:01:58;31.1;51.6
43414;DHT22;29013;49.676;8.606;2023-06-10T14:07:23;31.4;52.2
43414;DHT22;29013;49.676;8.606;2023-06-10T14:12:49;31.8;51.8
43414;DHT22;29013;49.676;8.606;2023-06-10T14:18:13;31.8;50.9
43414;DHT22;29013;49.676;8.606;2023-06-10T14:23:36;31.4;51.4
43414;DHT22;29013;49.676;8.606;2023-06-10T14:29:01;31.6;51.3
43414;DHT22;29013;49.676;8.606;2023-06-10T14:34:26;32.1;51.0
43414;DHT22;29013;49.676;8.606;2023-06-10T14:39:51;31.9;50.6
43414;DHT22;29013;49.676;8.606;2023-06-10T14:45:14;32.1;50.8
43414;DHT22;29013;49.676;8.606;2023-06-10T14:50:39;32.3;50.8
43414;DHT22;29013;49.676;8.606;2023-06-10T14:56:01;32.5;50.0
43414;DHT22;29013;49.676;8.606;2023-06-10T15:01:22;32.9;50.1
43414;DHT22;29013;49.676;8.606;2023-06-10T15:06:45;33.3;49.7
43414;DHT22;29013;49.676;8.606;2023-06-10T15:12:12;33.5;49.3
43414;DHT22;29013;49.676;8.606;2023-06-10T15:17:32;34.0;48.3
43414;DHT22;29013;49.676;8.606;2023-06-10T15:22:57;34.1;47.5
43414;DHT22;29013;49.676;8.606;2023-06-10T15:28:33;34.3;48.3
43414;DHT22;29013;49.676;8.606;2023-06-10T15:33:58;34.5;46.8
43414;DHT22;29013;49.676;8.606;2023-06-10T15:39:23;34.5;48.0
43414;DHT22;29013;49.676;8.606;2023-06-10T15:45:11;34.2;48.0
43414;DHT22;29013;49.676;8.606;2023-06-10T15:50:55;34.4;48.3
43414;DHT22;29013;49.676;8.606;2023-06-10T15:56:18;34.5;47.7
43414;DHT22;29013;49.676;8.606;2023-06-10T16:01:42;33.6;47.3
43414;DHT22;29013;49.676;8.606;2023-06-10T16:07:35;33.3;48.2
43414;DHT22;29013;49.676;8.606;2023-06-10T16:12:55;33.6;47.3
43414;DHT22;29013;49.676;8.606;2023-06-10T16:18:42;33.7;48.1
43414;DHT22;29013;49.676;8.606;2023-06-10T16:24:05;34.0;47.6
43414;DHT22;29013;49.676;8.606;2023-06-10T16:29:29;34.7;47.2
43414;DHT22;29013;49.676;8.606;2023-06-10T16:34:56;35.7;45.7
43414;DHT22;29013;49.676;8.606;2023-06-10T16:40:24;36.6;44.8
43414;DHT22;29013;49.676;8.606;2023-06-10T16:45:50;37.4;44.8
43414;DHT22;29013;49.676;8.606;2023-06-10T16:51:15;38.1;43.4
43414;DHT22;29013;49.676;8.606;2023-06-10T16:56:38;38.3;42.3
43414;DHT22;29013;49.676;8.606;2023-06-10T17:02:05;37.3;42.3
43414;DHT22;29013;49.676;8.606;2023-06-10T17:07:30;35.8;43.3
43414;DHT22;29013;49.676;8.606;2023-06-10T17:12:52;35.1;44.4
43414;DHT22;29013;49.676;8.606;2023-06-10T17:18:18;36.9;44.8
43414;DHT22;29013;49.676;8.606;2023-06-10T17:23:44;38.7;42.2
43414;DHT22;29013;49.676;8.606;2023-06-10T17:29:11;40.0;41.3
43414;DHT22;29013;49.676;8.606;2023-06-10T17:34:34;40.6;40.9
43414;DHT22;29013;49.676;8.606;2023-06-10T17:40:00;40.3;40.8
43414;DHT22;29013;49.676;8.606;2023-06-10T17:45:25;39.7;41.6
43414;DHT22;29013;49.676;8.606;2023-06-10T17:51:04;37.3;43.4
43414;DHT22;29013;49.676;8.606;2023-06-10T17:56:23;35.2;45.2
43414;DHT22;29013;49.676;8.606;2023-06-10T18:02:02;33.5;47.3
43414;DHT22;29013;49.676;8.606;2023-06-10T18:07:24;32.5;48.4
43414;DHT22;29013;49.676;8.606;2023-06-10T18:12:45;31.8;49.3
43414;DHT22;29013;49.676;8.606;2023-06-10T18:18:05;31.2;50.2
43414;DHT22;29013;49.676;8.606;2023-06-10T18:23:25;30.8;51.4
43414;DHT22;29013;49.676;8.606;2023-06-10T18:28:47;30.5;52.4
43414;DHT22;29013;49.676;8.606;2023-06-10T18:34:08;30.2;53.3
43414;DHT22;29013;49.676;8.606;2023-06-10T18:39:32;29.9;53.8
43414;DHT22;29013;49.676;8.606;2023-06-10T18:44:49;29.6;54.5
43414;DHT22;29013;49.676;8.606;2023-06-10T18:50:12;29.3;54.9
43414;DHT22;29013;49.676;8.606;2023-06-10T18:55:32;28.9;56.0
43414;DHT22;29013;49.676;8.606;2023-06-10T19:00:51;28.6;56.5
43414;DHT22;29013;49.676;8.606;2023-06-10T19:06:13;28.3;56.9
43414;DHT22;29013;49.676;8.606;2023-06-10T19:11:38;28.1;57.4
43414;DHT22;29013;49.676;8.606;2023-06-10T19:17:01;27.8;59.1
43414;DHT22;29013;49.676;8.606;2023-06-10T19:22:27;27.6;59.0
43414;DHT22;29013;49.676;8.606;2023-06-10T19:27:51;27.4;59.4
43414;DHT22;29013;49.676;8.606;2023-06-10T19:33:12;27.1;60.1
43414;DHT22;29013;49.676;8.606;2023-06-10T19:38:36;26.9;61.1
43414;DHT22;29013;49.676;8.606;2023-06-10T19:43:59;26.6;61.2
43414;DHT22;29013;49.676;8.606;2023-06-10T19:49:24;26.5;61.8
43414;DHT22;29013;49.676;8.606;2023-06-10T19:54:48;26.2;62.6
43414;DHT22;29013;49.676;8.606;2023-06-10T20:00:13;26.1;63.1
43414;DHT22;29013;49.676;8.606;2023-06-10T20:05:33;26.0;63.7
43414;DHT22;29013;49.676;8.606;2023-06-10T20:10:57;25.8;64.6
43414;DHT22;29013;49.676;8.606;2023-06-10T20:16:18;25.7;63.9
43414;DHT22;29013;49.676;8.606;2023-06-10T20:21:38;25.6;64.8
43414;DHT22;29013;49.676;8.606;2023-06-10T20:27:04;25.6;65.3
43414;DHT22;29013;49.676;8.606;2023-06-10T20:32:49;25.5;66.0
43414;DHT22;29013;49.676;8.606;2023-06-10T20:38:14;25.6;65.2
43414;DHT22;29013;49.676;8.606;2023-06-10T20:43:38;25.6;65.3
43414;DHT22;29013;49.676;8.606;2023-06-10T20:49:04;25.5;65.5
43414;DHT22;29013;49.676;8.606;2023-06-10T20:54:27;25.5;65.6
43414;DHT22;29013;49.676;8.606;2023-06-10T20:59:52;25.5;65.8
43414;DHT22;29013;49.676;8.606;2023-06-10T21:05:17;25.4;66.0
43414;DHT22;29013;49.676;8.606;2023-06-10T21:10:44;25.4;66.0
43414;DHT22;29013;49.676;8.606;2023-06-10T21:16:07;25.4;66.5
43414;DHT22;29013;49.676;8.606;2023-06-10T21:21:30;25.3;66.3
43414;DHT22;29013;49.676;8.606;2023-06-10T21:27:12;25.3;67.4
43414;DHT22;29013;49.676;8.606;2023-06-10T21:32:33;25.4;66.4
43414;DHT22;29013;49.676;8.606;2023-06-10T21:37:56;25.3;67.2
43414;DHT22;29013;49.676;8.606;2023-06-10T21:43:19;25.3;67.0
43414;DHT22;29013;49.676;8.606;2023-06-10T21:48:41;25.2;67.1
43414;DHT22;29013;49.676;8.606;2023-06-10T21:54:01;25.2;67.1
43414;DHT22;29013;49.676;8.606;2023-06-10T21:59:25;25.1;67.4
43414;DHT22;29013;49.676;8.606;2023-06-10T22:05:05;25.0;68.0
43414;DHT22;29013;49.676;8.606;2023-06-10T22:10:43;25.1;68.1
43414;DHT22;29013;49.676;8.606;2023-06-10T22:16:06;25.1;68.2
43414;DHT22;29013;49.676;8.606;2023-06-10T22:21:31;25.0;67.8
43414;DHT22;29013;49.676;8.606;2023-06-10T22:26:57;24.9;68.3
43414;DHT22;29013;49.676;8.606;2023-06-10T22:32:15;25.0;67.9
43414;DHT22;29013;49.676;8.606;2023-06-10T22:37:40;24.9;68.0
43414;DHT22;29013;49.676;8.606;2023-06-10T22:43:04;24.8;68.2
43414;DHT22;29013;49.676;8.606;2023-06-10T22:48:28;24.7;68.1
43414;DHT22;29013;49.676;8.606;2023-06-10T22:54:19;24.6;68.8
43414;DHT22;29013;49.676;8.606;2023-06-10T22:59:43;24.7;69.0
43414;DHT22;29013;49.676;8.606;2023-06-10T23:05:04;24.6;68.3
43414;DHT22;29013;49.676;8.606;2023-06-10T23:10:28;24.5;68.7
43414;DHT22;29013;49.676;8.606;2023-06-10T23:16:11;24.3;69.4
43414;DHT22;29013;49.676;8.606;2023-06-10T23:21:34;24.3;69.1
43414;DHT22;29013;49.676;8.606;2023-06-10T23:26:57;24.2;69.0
43414;DHT22;29013;49.676;8.606;2023-06-10T23:32:17;24.2;69.6
43414;DHT22;29013;49.676;8.606;2023-06-10T23:37:42;24.1;69.7
43414;DHT22;29013;49.676;8.606;2023-06-10T23:43:07;24.0;69.8
43414;DHT22;29013;49.676;8.606;2023-06-10T23:48:32;24.0;70.0
43414;DHT22;29013;49.676;8.606;2023-06-10T23:54:10;24.0;70.7
43414;DHT22;29013;49.676;8.606;2023-06-10T23:59:35;24.0;70.0
